Huvudsida
METAR-TAF:

METAR-TAF

Flygplatser :

Rørviks flygplats. Ryum

Rørvik, Norge

latitud: 64-50N, longitud: 011-09E, höjd: 4 m

Aktuellt väderrapport

Denna rapport gjordes för 3 timmar och 34 minuter sedan, klockan 08:20 UTC
Vind 5 kt från nord/nordväst
Temperatur 2°C
Fuktighet 87%
Tryck 1023 hPa
Sikt 10 km eller mer
Få moln på en höjd av 1700 ft

METAR: ENRM 110820Z 34005KT 9999 FEW017 02/M00 Q1023

Tid: 12:54 (11:54 UTC)

Väderprognos

Denna rapport gjordes för 18 timmar och 54 minuter sedan, klockan 17:00 UTC
Prognos gäller från 10 kl. 18 UTC till 10 kl. 21 UTC
Vind 8 kt från nord
Sikt 10 km eller mer
Få moln på en höjd av 2000 ft
Brutna moln på en höjd av 5000 ft
Temporärt
från 10 kl. 18 UTC till 10 kl. 21 UTC
Sikt: 3000 m
Brutna moln på en höjd av 1200 ft, Cumulonimbus.
regnskurar, snö

TAF: ENRM 101700Z 1018/1021 01008KT 9999 FEW020 BKN050 TEMPO 1018/1021 3000 SHRASN BKN012CB

Aktuella väderrapporter och prognoser från 4000 flygplatser (METAR- och TAF-rapporter).

De tillgängliga stationerna syns som gula och röda prickar på kartan.

För musen över prickarna för att se namnen på stationerna.

Klicka sedan för att få väderrapporter och prognoser.

För att ändra kartan: Klicka på de gröna knapparna med ett svart kors på för att zooma in; den gröna knappen med ett streck på för att zooma ut; eller på de gröna pilarna för angränsande kartor.


METAR-TAF: